createdAt,value
2022-09-15T00:00:52.325Z,17.51
2022-09-15T00:04:48.734Z,17.53
2022-09-15T00:08:36.414Z,17.62
2022-09-15T00:12:23.951Z,17.49
2022-09-15T00:16:08.729Z,17.46
2022-09-15T00:19:56.160Z,17.49
2022-09-15T00:23:42.362Z,17.57
2022-09-15T00:27:28.657Z,17.56
2022-09-15T00:31:16.197Z,17.56
2022-09-15T00:35:03.750Z,17.52
2022-09-15T00:38:51.385Z,17.57
2022-09-15T00:42:39.157Z,17.57
2022-09-15T00:46:26.608Z,17.46
2022-09-15T00:50:14.628Z,17.53
2022-09-15T00:54:02.041Z,17.48
2022-09-15T00:57:49.579Z,17.57
2022-09-15T01:01:37.238Z,17.50
2022-09-15T01:05:17.946Z,17.48
2022-09-15T01:08:12.060Z,17.37
2022-09-15T01:11:43.335Z,17.31
2022-09-15T01:15:31.136Z,17.32
2022-09-15T01:19:17.013Z,17.29
2022-09-15T01:22:54.560Z,17.19
2022-09-15T01:26:46.306Z,17.12
2022-09-15T01:30:35.111Z,16.99
2022-09-15T01:34:31.471Z,17.04
2022-09-15T01:38:18.910Z,17.04
2022-09-15T01:42:11.796Z,17.05
2022-09-15T01:46:01.777Z,17.03
2022-09-15T01:49:49.274Z,16.97
2022-09-15T01:53:11.436Z,16.95
2022-09-15T01:57:11.244Z,16.99
2022-09-15T02:00:58.816Z,16.96
2022-09-15T02:05:01.641Z,16.93
2022-09-15T02:08:52.017Z,16.89
2022-09-15T02:12:45.331Z,16.90
2022-09-15T02:16:42.145Z,16.80
2022-09-15T02:20:56.893Z,16.70
2022-09-15T02:24:44.405Z,16.70
2022-09-15T02:28:31.748Z,16.68
2022-09-15T02:32:10.359Z,16.68
2022-09-15T02:35:58.025Z,16.67
2022-09-15T02:39:45.580Z,16.49
2022-09-15T02:43:31.317Z,16.47
2022-09-15T02:47:01.476Z,16.53
2022-09-15T02:50:28.246Z,16.58
2022-09-15T02:54:06.232Z,16.54
2022-09-15T02:57:53.666Z,16.52
2022-09-15T03:01:41.127Z,16.49
2022-09-15T03:05:08.633Z,16.40
2022-09-15T03:08:50.369Z,16.45
2022-09-15T03:12:38.503Z,16.27
2022-09-15T03:16:25.959Z,16.18
2022-09-15T03:20:19.145Z,16.11
2022-09-15T03:23:56.630Z,16.15
2022-09-15T03:27:46.971Z,16.23
2022-09-15T03:31:04.934Z,16.26
2022-09-15T03:34:56.405Z,16.19
2022-09-15T03:38:40.101Z,16.18
2022-09-15T03:42:27.524Z,16.08
2022-09-15T03:46:15.219Z,15.97
2022-09-15T03:50:02.714Z,15.96
2022-09-15T03:53:34.310Z,15.95
2022-09-15T03:57:22.087Z,15.81
2022-09-15T04:01:02.768Z,15.88
2022-09-15T04:04:50.261Z,15.82
2022-09-15T04:08:37.619Z,15.97
2022-09-15T04:12:17.972Z,15.99
2022-09-15T04:15:48.717Z,16.01
2022-09-15T04:19:36.429Z,15.94
2022-09-15T04:23:06.494Z,15.91
2022-09-15T04:26:54.047Z,16.05
2022-09-15T04:30:42.563Z,16.16
2022-09-15T04:34:30.344Z,16.12
2022-09-15T04:38:17.975Z,16.10
2022-09-15T04:42:05.432Z,15.91
2022-09-15T04:45:33.717Z,15.99
2022-09-15T04:48:24.970Z,16.07
2022-09-15T04:51:58.867Z,16.07
2022-09-15T04:55:47.525Z,16.14
2022-09-15T04:59:19.745Z,16.11
2022-09-15T05:03:07.810Z,15.99
2022-09-15T05:06:41.496Z,16.03
2022-09-15T05:10:29.376Z,16.03
2022-09-15T05:14:07.078Z,15.92
2022-09-15T05:17:40.213Z,15.84
2022-09-15T05:21:28.057Z,16.03
2022-09-15T05:25:15.729Z,16.05
2022-09-15T05:29:03.601Z,16.06
2022-09-15T05:32:51.095Z,16.42
2022-09-15T05:36:29.737Z,16.70
2022-09-15T05:40:15.778Z,16.96
2022-09-15T05:44:03.537Z,17.05
2022-09-15T05:47:33.564Z,17.03
2022-09-15T05:51:21.084Z,16.98
2022-09-15T05:55:08.697Z,17.06
2022-09-15T05:58:56.283Z,17.14
2022-09-15T06:02:43.907Z,17.11
2022-09-15T06:06:31.449Z,17.28
2022-09-15T06:10:19.029Z,17.48
2022-09-15T06:14:06.489Z,17.62
2022-09-15T06:17:47.118Z,17.86
2022-09-15T06:21:34.611Z,17.92
2022-09-15T06:25:22.165Z,17.94
2022-09-15T06:29:09.799Z,17.74
2022-09-15T06:32:55.149Z,18.04
2022-09-15T06:36:23.994Z,17.88
2022-09-15T06:39:39.157Z,17.83
2022-09-15T06:42:37.832Z,17.87
2022-09-15T06:46:26.248Z,17.89
2022-09-15T06:50:14.391Z,18.12
2022-09-15T06:54:01.881Z,18.44
2022-09-15T06:57:49.681Z,18.56
2022-09-15T07:01:12.942Z,18.65
2022-09-15T07:04:52.523Z,18.81
2022-09-15T07:08:32.771Z,18.95
2022-09-15T07:12:22.922Z,19.07
2022-09-15T07:16:10.921Z,18.95
2022-09-15T07:19:58.439Z,19.11
2022-09-15T07:23:46.068Z,19.43
2022-09-15T07:27:33.840Z,19.64
2022-09-15T07:31:21.593Z,20.09
2022-09-15T07:35:09.441Z,20.07
2022-09-15T07:38:57.091Z,20.84
2022-09-15T07:42:44.774Z,21.15
2022-09-15T07:46:32.380Z,20.85
2022-09-15T07:50:19.780Z,20.90
2022-09-15T07:54:07.238Z,20.65
2022-09-15T07:57:56.018Z,20.73
2022-09-15T08:01:43.676Z,20.41
2022-09-15T08:05:34.766Z,21.10
2022-09-15T08:09:26.942Z,21.36
2022-09-15T08:13:14.719Z,21.08
2022-09-15T08:16:54.229Z,20.91
2022-09-15T08:20:35.147Z,20.82
2022-09-15T08:24:13.337Z,20.69
2022-09-15T08:28:01.280Z,20.86
2022-09-15T08:31:49.250Z,21.64
2022-09-15T08:35:37.427Z,22.38
2022-09-15T08:39:26.077Z,22.33
2022-09-15T08:43:14.241Z,22.06
2022-09-15T08:47:08.485Z,22.39
2022-09-15T08:51:02.534Z,21.90
2022-09-15T08:54:52.929Z,21.97
2022-09-15T08:58:40.449Z,22.02
2022-09-15T09:02:32.311Z,22.35
2022-09-15T09:06:34.692Z,22.67
2022-09-15T09:10:30.329Z,22.02
2022-09-15T09:14:23.725Z,21.35
2022-09-15T09:18:12.461Z,21.34
2022-09-15T09:22:07.879Z,21.55
2022-09-15T09:25:55.414Z,21.65
2022-09-15T09:29:55.935Z,21.75
2022-09-15T09:33:48.154Z,21.16
2022-09-15T09:37:36.849Z,21.45
2022-09-15T09:41:24.492Z,21.94
2022-09-15T09:45:12.296Z,22.33
2022-09-15T09:48:54.284Z,22.27
2022-09-15T09:52:50.786Z,22.34
2022-09-15T09:56:41.490Z,22.65
2022-09-15T10:00:35.895Z,22.82
2022-09-15T10:04:25.106Z,23.23
2022-09-15T10:08:07.903Z,24.05
2022-09-15T10:11:55.709Z,23.54
2022-09-15T10:15:43.692Z,23.24
2022-09-15T10:19:37.375Z,23.52
2022-09-15T10:23:43.379Z,23.90
2022-09-15T10:27:31.247Z,23.94
2022-09-15T10:33:52.868Z,23.87
2022-09-15T10:37:35.376Z,23.84
2022-09-15T10:40:55.386Z,23.60
2022-09-15T10:44:46.263Z,23.67
2022-09-15T10:48:08.156Z,23.91
2022-09-15T10:52:09.425Z,24.52
2022-09-15T10:55:58.768Z,24.54
2022-09-15T10:59:39.845Z,24.53
2022-09-15T11:03:00.282Z,25.33
2022-09-15T11:06:39.349Z,24.82
2022-09-15T11:10:31.047Z,24.40
2022-09-15T11:13:44.041Z,24.51
2022-09-15T11:17:45.657Z,24.36
2022-09-15T11:21:29.078Z,24.73
2022-09-15T11:25:11.545Z,24.69
2022-09-15T11:28:31.548Z,24.34
2022-09-15T11:31:57.096Z,23.96
2022-09-15T11:35:27.588Z,23.34
2022-09-15T11:38:53.546Z,23.13
2022-09-15T11:42:21.350Z,22.29
2022-09-15T11:45:37.349Z,21.93
2022-09-15T11:49:23.643Z,21.50
2022-09-15T11:53:09.607Z,21.23
2022-09-15T11:57:11.325Z,20.89
2022-09-15T12:00:50.909Z,20.97
2022-09-15T12:04:09.362Z,21.27
2022-09-15T12:07:23.937Z,21.18
2022-09-15T12:10:45.587Z,21.26
2022-09-15T12:13:53.269Z,21.34
2022-09-15T12:17:11.883Z,21.46
2022-09-15T12:20:31.598Z,21.53
2022-09-15T12:24:01.635Z,21.70
2022-09-15T12:27:21.036Z,21.82
2022-09-15T12:31:18.550Z,22.17
2022-09-15T12:35:11.384Z,22.27
2022-09-15T12:38:43.324Z,22.76
2022-09-15T12:41:43.945Z,23.19
2022-09-15T12:45:21.297Z,22.97
2022-09-15T12:48:39.205Z,23.07
2022-09-15T12:51:34.204Z,23.31
2022-09-15T12:54:22.818Z,23.02
2022-09-15T12:58:01.628Z,22.67
2022-09-15T13:01:52.172Z,22.96
2022-09-15T13:05:30.769Z,23.09
2022-09-15T13:09:14.128Z,23.03
2022-09-15T13:13:03.492Z,23.08
2022-09-15T13:16:53.103Z,23.15
2022-09-15T13:20:35.616Z,23.34
2022-09-15T13:24:25.603Z,23.52
2022-09-15T13:27:43.331Z,23.44
2022-09-15T13:31:30.780Z,23.34
2022-09-15T13:35:20.414Z,23.35
2022-09-15T13:38:45.308Z,23.05
2022-09-15T13:41:57.246Z,22.75
2022-09-15T13:45:02.626Z,22.79
2022-09-15T13:48:29.709Z,23.01
2022-09-15T13:52:11.146Z,22.86
2022-09-15T13:56:09.128Z,22.81
2022-09-15T13:59:25.830Z,22.73
2022-09-15T14:03:05.552Z,23.00
2022-09-15T14:06:46.650Z,22.89
2022-09-15T14:10:36.597Z,23.02
2022-09-15T14:14:07.092Z,22.79
2022-09-15T14:17:20.045Z,23.05
2022-09-15T14:20:43.485Z,23.44
2022-09-15T14:23:52.803Z,23.60
2022-09-15T14:27:00.561Z,23.99
2022-09-15T14:29:59.229Z,23.96
2022-09-15T14:33:26.333Z,24.45
2022-09-15T14:37:20.858Z,24.71
2022-09-15T14:41:13.263Z,24.41
2022-09-15T14:48:43.242Z,23.02
2022-09-15T14:51:58.312Z,22.76
2022-09-15T14:54:51.895Z,22.91
2022-09-15T14:57:51.342Z,23.05
2022-09-15T15:01:09.789Z,22.91
2022-09-15T15:05:00.198Z,23.02
2022-09-15T15:08:06.335Z,22.64
2022-09-15T15:11:16.488Z,22.50
2022-09-15T15:14:44.703Z,22.44
2022-09-15T15:17:55.783Z,22.58
2022-09-15T15:21:25.723Z,22.44
2022-09-15T15:24:49.922Z,22.46
2022-09-15T15:27:51.323Z,22.75
2022-09-15T15:30:50.733Z,22.81
2022-09-15T15:34:30.163Z,22.52
2022-09-15T15:37:45.877Z,22.49
2022-09-15T15:40:50.769Z,22.83
2022-09-15T15:44:31.676Z,22.39
2022-09-15T15:48:00.054Z,22.17
2022-09-15T15:51:49.857Z,21.94
2022-09-15T15:54:43.245Z,21.73
2022-09-15T15:57:59.867Z,21.53
2022-09-15T16:01:34.061Z,21.71
2022-09-15T16:04:25.868Z,21.43
2022-09-15T16:07:33.467Z,21.36
2022-09-15T16:10:48.664Z,20.95
2022-09-15T16:14:37.913Z,21.12
2022-09-15T16:17:10.243Z,20.99
2022-09-15T16:19:57.933Z,21.00
2022-09-15T16:22:53.136Z,21.07
2022-09-15T16:26:42.257Z,21.13
2022-09-15T16:30:22.285Z,21.06
2022-09-15T16:33:14.612Z,20.74
2022-09-15T16:36:16.669Z,20.74
2022-09-15T16:39:28.727Z,20.66
2022-09-15T16:42:22.545Z,20.56
2022-09-15T16:45:51.464Z,20.56
2022-09-15T16:49:00.539Z,20.42
2022-09-15T16:52:20.333Z,20.38
2022-09-15T16:55:55.185Z,20.19
2022-09-15T16:58:48.869Z,20.15
2022-09-15T17:01:35.485Z,20.05
2022-09-15T17:04:19.346Z,19.90
2022-09-15T17:07:27.415Z,19.78
2022-09-15T17:11:05.968Z,19.53
2022-09-15T17:13:39.828Z,19.59
2022-09-15T17:16:22.913Z,19.57
2022-09-15T17:19:11.742Z,19.46
2022-09-15T17:22:03.701Z,19.47
2022-09-15T17:25:11.825Z,19.39
2022-09-15T17:28:33.646Z,19.22
2022-09-15T17:32:02.986Z,19.00
2022-09-15T17:35:15.938Z,18.90
2022-09-15T17:38:32.870Z,18.78
2022-09-15T17:42:09.530Z,18.43
2022-09-15T17:45:21.362Z,18.33
2022-09-15T17:48:32.553Z,18.33
2022-09-15T17:51:47.005Z,18.25
2022-09-15T17:54:55.826Z,18.19
2022-09-15T17:58:06.099Z,17.92
2022-09-15T18:01:37.711Z,17.86
2022-09-15T18:05:10.030Z,17.74
2022-09-15T18:08:17.946Z,17.61
2022-09-15T18:11:21.956Z,17.54
2022-09-15T18:14:28.010Z,17.42
2022-09-15T18:17:57.105Z,17.31
2022-09-15T18:20:46.545Z,17.09
2022-09-15T18:23:20.874Z,17.00
2022-09-15T18:25:56.553Z,16.89
2022-09-15T18:28:35.539Z,16.81
2022-09-15T18:31:21.674Z,16.74
2022-09-15T18:34:25.595Z,16.64
2022-09-15T18:38:09.508Z,16.58
2022-09-15T18:41:20.041Z,16.52
2022-09-15T18:44:33.197Z,16.54
2022-09-15T18:47:11.283Z,16.57
2022-09-15T18:50:41.750Z,16.63
2022-09-15T18:53:58.412Z,16.63
2022-09-15T18:57:16.992Z,16.63
2022-09-15T18:59:55.586Z,16.63
2022-09-15T19:02:45.302Z,16.58
2022-09-15T19:06:18.706Z,16.52
2022-09-15T19:09:10.899Z,16.49
2022-09-15T19:12:00.336Z,16.50
2022-09-15T19:14:46.073Z,16.55
2022-09-15T19:17:59.643Z,16.62
2022-09-15T19:20:52.528Z,16.73
2022-09-15T19:23:46.642Z,16.72
2022-09-15T19:26:20.909Z,16.62
2022-09-15T19:29:07.463Z,16.64
2022-09-15T19:32:39.198Z,16.63
2022-09-15T19:35:20.447Z,16.63
2022-09-15T19:38:49.772Z,16.60
2022-09-15T19:41:24.694Z,16.67
2022-09-15T19:44:44.133Z,16.69
2022-09-15T19:47:35.584Z,16.71
2022-09-15T19:50:29.831Z,16.77
2022-09-15T19:53:01.459Z,16.83
2022-09-15T19:56:31.223Z,16.81
2022-09-15T19:59:13.884Z,16.80
2022-09-15T20:01:47.941Z,16.73
2022-09-15T20:04:39.875Z,16.71
2022-09-15T20:07:11.579Z,16.71
2022-09-15T20:10:33.814Z,16.70
2022-09-15T20:13:06.134Z,16.79
2022-09-15T20:15:58.590Z,16.79
2022-09-15T20:18:33.719Z,16.91
2022-09-15T20:21:50.242Z,16.78
2022-09-15T20:24:22.926Z,16.79
2022-09-15T20:28:13.222Z,16.85
2022-09-15T20:30:57.596Z,16.84
2022-09-15T20:33:54.866Z,16.92
2022-09-15T20:37:27.738Z,16.74
2022-09-15T20:41:10.757Z,16.58
2022-09-15T20:43:41.930Z,16.57
2022-09-15T20:46:46.885Z,16.49
2022-09-15T20:50:27.467Z,16.43
2022-09-15T20:53:30.544Z,16.33
2022-09-15T20:56:03.506Z,16.26
2022-09-15T20:59:37.359Z,16.18
2022-09-15T21:02:45.121Z,16.11
2022-09-15T21:06:00.300Z,16.00
2022-09-15T21:09:29.370Z,16.10
2022-09-15T21:12:20.955Z,15.82
2022-09-15T21:15:10.048Z,15.67
2022-09-15T21:18:24.269Z,15.71
2022-09-15T21:21:22.093Z,15.66
2022-09-15T21:24:30.918Z,15.70
2022-09-15T21:27:52.337Z,15.62
2022-09-15T21:30:54.060Z,15.68
2022-09-15T21:33:23.346Z,15.67
2022-09-15T21:36:09.692Z,15.68
2022-09-15T21:38:59.761Z,15.73
2022-09-15T21:41:46.528Z,15.80
2022-09-15T21:45:15.355Z,15.92
2022-09-15T21:47:56.887Z,15.69
2022-09-15T21:50:49.322Z,15.59
2022-09-15T21:53:28.482Z,15.38
2022-09-15T21:56:37.272Z,15.47
2022-09-15T21:59:36.204Z,15.47
2022-09-15T22:02:48.308Z,15.42
2022-09-15T22:05:25.896Z,15.23
2022-09-15T22:08:08.798Z,15.26
2022-09-15T22:11:20.375Z,15.16
2022-09-15T22:14:11.882Z,15.12
2022-09-15T22:16:42.566Z,15.07
2022-09-15T22:19:43.042Z,15.06
2022-09-15T22:23:04.555Z,15.12
2022-09-15T22:25:33.540Z,15.07
2022-09-15T22:29:02.550Z,15.02
2022-09-15T22:32:16.065Z,14.99
2022-09-15T22:35:19.689Z,15.02
2022-09-15T22:38:03.853Z,14.96
2022-09-15T22:40:56.257Z,14.91
2022-09-15T22:43:27.731Z,14.88
2022-09-15T22:45:58.619Z,14.91
2022-09-15T22:48:52.120Z,14.86
2022-09-15T22:51:20.804Z,14.83
2022-09-15T22:54:09.580Z,14.85
2022-09-15T22:57:08.400Z,14.88
2022-09-15T23:00:16.376Z,14.86
2022-09-15T23:02:46.792Z,14.69
2022-09-15T23:05:19.965Z,14.66
2022-09-15T23:08:09.581Z,14.64
2022-09-15T23:10:43.587Z,14.57
2022-09-15T23:13:15.587Z,14.55
2022-09-15T23:15:50.325Z,14.55
2022-09-15T23:18:39.157Z,14.54
2022-09-15T23:21:40.570Z,14.65
2022-09-15T23:24:12.410Z,14.70
2022-09-15T23:26:43.361Z,14.68
2022-09-15T23:29:27.831Z,14.58
2022-09-15T23:31:59.061Z,14.50
2022-09-15T23:34:30.141Z,14.38
2022-09-15T23:37:54.459Z,14.23
2022-09-15T23:40:23.534Z,14.15
2022-09-15T23:42:52.112Z,14.16
2022-09-15T23:45:35.316Z,14.14
2022-09-15T23:48:23.886Z,14.15
2022-09-15T23:51:22.784Z,14.06
2022-09-15T23:53:51.195Z,13.98
2022-09-15T23:56:25.120Z,13.98
2022-09-15T23:58:56.706Z,13.93
